Forside
METAR-TAF:

METAR-TAF

Lufthavne :

Dusjanbe, Tadsjikistan

Breddekreds: 38-33N, længdekreds: 068-47E, højde: 803 m

Aktuelle vejr

Denne rapport blev lavet for 13 minutter siden, kl. 00:00 UTC
Vind 2 kt fra varierende retninger
Temperatur 2°C
Fugtighed 87%
Tryk 1026 hPa
Sigt: 3400 m
dis, røg

METAR: UTDD 170000Z VRB01MPS 3400 BR FU NSC 02/M00 Q1026 R09/CLRD// NOSIG RMK QFE700/0934

Tid: 05:13 (00:13 UTC)

Vejrudsigter

Denne rapport blev lavet for 3 timer og 13 minutter siden, kl. 21:00 UTC
Foreløbig gælder fra 16 på 22 UTC til 17 på 10 UTC
Vind 4 kt fra varierende retninger
Sigt: 1500 m
Spredte skyer i en højde af 1100 ft
Spredte skyer i en højde af 5000 ft, Cumulonimbus.
Brudte skyer i en højde af 10000 ft
dis, røg
Midlertidig
fra 16 på 22 UTC til 17 på 04 UTC
Sigt: 0600 m
tåge, røg

TAF: UTDD 162100Z 1622/1710 VRB02MPS 1500 BR FU SCT011 SCT050CB BKN100 TEMPO 1622/1704 0600 FG FU

Vejrobservationer og prognoser fra mere end 4000 lufthavne (METAR og TAF).

De gule og røde prikker repræsenterer de meteorologiske stationer.

Flyt musen over at se navnet på stationen.

Så klik over at se vejr observationer og prognoser.

At skifte det kort: Klik på de grønne knapper med et sort kors for at zoome ind; på den grønne knap med en bindestreg for at zoome ud; eller på de grønne pile for tilstødende kort.


METAR-TAF: